sensor_id;sensor_type;location;lat;lon;timestamp;P1;durP1;ratioP1;P2;durP2;ratioP2
12469;SDS011;36499;46.484;13.832;2023-12-07T00:00:41;2.90;;;2.33;;
12469;SDS011;36499;46.484;13.832;2023-12-07T00:03:08;4.37;;;2.17;;
12469;SDS011;36499;46.484;13.832;2023-12-07T00:05:35;4.60;;;1.97;;
12469;SDS011;36499;46.484;13.832;2023-12-07T00:08:03;6.10;;;2.27;;
12469;SDS011;36499;46.484;13.832;2023-12-07T00:10:30;3.27;;;2.00;;
12469;SDS011;36499;46.484;13.832;2023-12-07T00:12:57;1.80;;;1.60;;
12469;SDS011;36499;46.484;13.832;2023-12-07T00:15:24;3.50;;;1.90;;
12469;SDS011;36499;46.484;13.832;2023-12-07T00:17:51;2.53;;;1.80;;
12469;SDS011;36499;46.484;13.832;2023-12-07T00:20:17;2.00;;;1.77;;
12469;SDS011;36499;46.484;13.832;2023-12-07T00:22:44;3.40;;;1.83;;
12469;SDS011;36499;46.484;13.832;2023-12-07T00:25:13;3.37;;;1.50;;
12469;SDS011;36499;46.484;13.832;2023-12-07T00:27:40;2.33;;;1.63;;
12469;SDS011;36499;46.484;13.832;2023-12-07T00:30:08;2.87;;;1.50;;
12469;SDS011;36499;46.484;13.832;2023-12-07T00:32:35;2.00;;;1.73;;
12469;SDS011;36499;46.484;13.832;2023-12-07T00:35:03;3.30;;;1.37;;
12469;SDS011;36499;46.484;13.832;2023-12-07T00:37:30;1.97;;;1.60;;
12469;SDS011;36499;46.484;13.832;2023-12-07T00:39:57;4.43;;;1.40;;
12469;SDS011;36499;46.484;13.832;2023-12-07T00:42:25;1.57;;;1.23;;
12469;SDS011;36499;46.484;13.832;2023-12-07T00:44:52;2.57;;;1.70;;
12469;SDS011;36499;46.484;13.832;2023-12-07T00:47:20;3.30;;;1.50;;
12469;SDS011;36499;46.484;13.832;2023-12-07T00:49:47;1.90;;;1.20;;
12469;SDS011;36499;46.484;13.832;2023-12-07T00:52:14;5.13;;;1.30;;
12469;SDS011;36499;46.484;13.832;2023-12-07T00:54:41;2.50;;;1.80;;
12469;SDS011;36499;46.484;13.832;2023-12-07T00:57:07;3.63;;;1.70;;
12469;SDS011;36499;46.484;13.832;2023-12-07T00:59:36;1.93;;;1.37;;
12469;SDS011;36499;46.484;13.832;2023-12-07T01:02:03;3.07;;;1.43;;
12469;SDS011;36499;46.484;13.832;2023-12-07T01:04:30;2.23;;;1.43;;
12469;SDS011;36499;46.484;13.832;2023-12-07T01:06:57;2.10;;;1.30;;
12469;SDS011;36499;46.484;13.832;2023-12-07T01:09:24;2.57;;;1.40;;
12469;SDS011;36499;46.484;13.832;2023-12-07T01:11:51;2.37;;;1.43;;
12469;SDS011;36499;46.484;13.832;2023-12-07T01:14:18;4.37;;;1.97;;
12469;SDS011;36499;46.484;13.832;2023-12-07T01:16:47;2.47;;;1.40;;
12469;SDS011;36499;46.484;13.832;2023-12-07T01:19:13;1.47;;;1.30;;
12469;SDS011;36499;46.484;13.832;2023-12-07T01:21:40;2.40;;;1.30;;
12469;SDS011;36499;46.484;13.832;2023-12-07T01:24:07;3.10;;;1.47;;
12469;SDS011;36499;46.484;13.832;2023-12-07T01:26:34;2.37;;;1.60;;
12469;SDS011;36499;46.484;13.832;2023-12-07T01:29:01;6.03;;;2.50;;
12469;SDS011;36499;46.484;13.832;2023-12-07T01:31:28;1.47;;;1.13;;
12469;SDS011;36499;46.484;13.832;2023-12-07T01:33:56;7.07;;;2.80;;
12469;SDS011;36499;46.484;13.832;2023-12-07T01:36:23;3.93;;;1.90;;
12469;SDS011;36499;46.484;13.832;2023-12-07T01:38:50;2.33;;;1.33;;
12469;SDS011;36499;46.484;13.832;2023-12-07T01:41:17;1.53;;;1.00;;
12469;SDS011;36499;46.484;13.832;2023-12-07T01:43:44;4.13;;;1.40;;
12469;SDS011;36499;46.484;13.832;2023-12-07T01:46:11;4.83;;;1.37;;
12469;SDS011;36499;46.484;13.832;2023-12-07T01:48:39;8.17;;;2.67;;
12469;SDS011;36499;46.484;13.832;2023-12-07T01:51:08;4.27;;;1.90;;
12469;SDS011;36499;46.484;13.832;2023-12-07T01:53:36;2.77;;;1.10;;
12469;SDS011;36499;46.484;13.832;2023-12-07T01:56:06;2.30;;;1.43;;
12469;SDS011;36499;46.484;13.832;2023-12-07T01:58:35;3.60;;;1.60;;
12469;SDS011;36499;46.484;13.832;2023-12-07T02:01:02;3.33;;;1.50;;
12469;SDS011;36499;46.484;13.832;2023-12-07T02:03:31;5.07;;;2.53;;
12469;SDS011;36499;46.484;13.832;2023-12-07T02:05:58;8.93;;;3.27;;
12469;SDS011;36499;46.484;13.832;2023-12-07T02:08:27;4.83;;;1.47;;
12469;SDS011;36499;46.484;13.832;2023-12-07T02:10:54;3.00;;;1.30;;
12469;SDS011;36499;46.484;13.832;2023-12-07T02:13:21;3.67;;;1.23;;
12469;SDS011;36499;46.484;13.832;2023-12-07T02:15:48;1.60;;;1.20;;
12469;SDS011;36499;46.484;13.832;2023-12-07T02:18:19;3.03;;;1.03;;
12469;SDS011;36499;46.484;13.832;2023-12-07T02:20:54;2.27;;;1.20;;
12469;SDS011;36499;46.484;13.832;2023-12-07T02:23:28;1.47;;;0.83;;
12469;SDS011;36499;46.484;13.832;2023-12-07T02:26:08;3.83;;;1.40;;
12469;SDS011;36499;46.484;13.832;2023-12-07T02:28:38;4.57;;;1.70;;
12469;SDS011;36499;46.484;13.832;2023-12-07T02:31:05;3.47;;;1.30;;
12469;SDS011;36499;46.484;13.832;2023-12-07T02:33:31;1.30;;;0.87;;
12469;SDS011;36499;46.484;13.832;2023-12-07T02:35:59;2.50;;;1.60;;
12469;SDS011;36499;46.484;13.832;2023-12-07T02:38:26;1.63;;;1.10;;
12469;SDS011;36499;46.484;13.832;2023-12-07T02:40:54;2.70;;;0.87;;
12469;SDS011;36499;46.484;13.832;2023-12-07T02:43:22;2.93;;;0.97;;
12469;SDS011;36499;46.484;13.832;2023-12-07T02:45:50;2.47;;;1.17;;
12469;SDS011;36499;46.484;13.832;2023-12-07T02:48:19;4.80;;;1.43;;
12469;SDS011;36499;46.484;13.832;2023-12-07T02:50:46;1.77;;;1.23;;
12469;SDS011;36499;46.484;13.832;2023-12-07T02:53:13;1.00;;;0.80;;
12469;SDS011;36499;46.484;13.832;2023-12-07T02:55:40;0.83;;;0.80;;
12469;SDS011;36499;46.484;13.832;2023-12-07T02:58:07;4.23;;;0.93;;
12469;SDS011;36499;46.484;13.832;2023-12-07T03:00:34;1.63;;;0.93;;
12469;SDS011;36499;46.484;13.832;2023-12-07T03:03:03;1.90;;;1.17;;
12469;SDS011;36499;46.484;13.832;2023-12-07T03:05:29;2.27;;;1.50;;
12469;SDS011;36499;46.484;13.832;2023-12-07T03:07:56;3.70;;;1.37;;
12469;SDS011;36499;46.484;13.832;2023-12-07T03:10:23;2.17;;;1.00;;
12469;SDS011;36499;46.484;13.832;2023-12-07T03:12:50;3.07;;;1.23;;
12469;SDS011;36499;46.484;13.832;2023-12-07T03:15:17;0.83;;;0.80;;
12469;SDS011;36499;46.484;13.832;2023-12-07T03:17:44;2.93;;;1.10;;
12469;SDS011;36499;46.484;13.832;2023-12-07T03:20:12;1.03;;;0.80;;
12469;SDS011;36499;46.484;13.832;2023-12-07T03:22:39;1.30;;;1.03;;
12469;SDS011;36499;46.484;13.832;2023-12-07T03:25:06;0.97;;;0.90;;
12469;SDS011;36499;46.484;13.832;2023-12-07T03:27:33;2.37;;;1.00;;
12469;SDS011;36499;46.484;13.832;2023-12-07T03:30:00;1.13;;;1.00;;
12469;SDS011;36499;46.484;13.832;2023-12-07T03:32:27;1.50;;;1.00;;
12469;SDS011;36499;46.484;13.832;2023-12-07T03:34:54;2.67;;;1.27;;
12469;SDS011;36499;46.484;13.832;2023-12-07T03:37:22;2.90;;;0.90;;
12469;SDS011;36499;46.484;13.832;2023-12-07T03:39:49;1.03;;;0.90;;
12469;SDS011;36499;46.484;13.832;2023-12-07T03:42:16;3.07;;;1.40;;
12469;SDS011;36499;46.484;13.832;2023-12-07T03:44:42;5.37;;;2.50;;
12469;SDS011;36499;46.484;13.832;2023-12-07T03:47:10;19.53;;;9.70;;
12469;SDS011;36499;46.484;13.832;2023-12-07T03:49:36;7.23;;;3.60;;
12469;SDS011;36499;46.484;13.832;2023-12-07T03:52:04;12.23;;;6.97;;
12469;SDS011;36499;46.484;13.832;2023-12-07T03:54:33;16.97;;;9.30;;
12469;SDS011;36499;46.484;13.832;2023-12-07T03:57:00;11.17;;;3.73;;
12469;SDS011;36499;46.484;13.832;2023-12-07T03:59:27;3.97;;;2.23;;
12469;SDS011;36499;46.484;13.832;2023-12-07T04:01:54;4.00;;;2.43;;
12469;SDS011;36499;46.484;13.832;2023-12-07T04:04:21;14.17;;;5.80;;
12469;SDS011;36499;46.484;13.832;2023-12-07T04:06:47;3.43;;;1.63;;
12469;SDS011;36499;46.484;13.832;2023-12-07T04:09:14;20.20;;;9.90;;
12469;SDS011;36499;46.484;13.832;2023-12-07T04:11:42;15.43;;;7.43;;
12469;SDS011;36499;46.484;13.832;2023-12-07T04:14:11;6.67;;;3.23;;
12469;SDS011;36499;46.484;13.832;2023-12-07T04:16:38;2.37;;;1.50;;
12469;SDS011;36499;46.484;13.832;2023-12-07T04:19:04;2.33;;;1.63;;
12469;SDS011;36499;46.484;13.832;2023-12-07T04:21:31;24.43;;;9.97;;
12469;SDS011;36499;46.484;13.832;2023-12-07T04:23:58;19.37;;;9.13;;
12469;SDS011;36499;46.484;13.832;2023-12-07T04:26:25;24.90;;;12.27;;
12469;SDS011;36499;46.484;13.832;2023-12-07T04:28:53;10.80;;;5.60;;
12469;SDS011;36499;46.484;13.832;2023-12-07T04:31:20;22.07;;;9.97;;
12469;SDS011;36499;46.484;13.832;2023-12-07T04:33:47;7.40;;;4.40;;
12469;SDS011;36499;46.484;13.832;2023-12-07T04:36:14;18.40;;;9.23;;
12469;SDS011;36499;46.484;13.832;2023-12-07T04:38:41;8.80;;;4.77;;
12469;SDS011;36499;46.484;13.832;2023-12-07T04:41:07;14.70;;;6.13;;
12469;SDS011;36499;46.484;13.832;2023-12-07T04:43:34;18.10;;;8.00;;
12469;SDS011;36499;46.484;13.832;2023-12-07T04:46:03;6.63;;;3.43;;
12469;SDS011;36499;46.484;13.832;2023-12-07T04:48:30;11.60;;;6.13;;
12469;SDS011;36499;46.484;13.832;2023-12-07T04:50:57;17.60;;;9.47;;
12469;SDS011;36499;46.484;13.832;2023-12-07T04:53:24;11.20;;;6.13;;
12469;SDS011;36499;46.484;13.832;2023-12-07T04:55:50;10.13;;;5.30;;
12469;SDS011;36499;46.484;13.832;2023-12-07T04:58:17;5.13;;;3.67;;
12469;SDS011;36499;46.484;13.832;2023-12-07T05:00:44;4.60;;;2.97;;
12469;SDS011;36499;46.484;13.832;2023-12-07T05:03:12;9.37;;;5.00;;
12469;SDS011;36499;46.484;13.832;2023-12-07T05:05:39;2.80;;;1.90;;
12469;SDS011;36499;46.484;13.832;2023-12-07T05:08:06;2.00;;;1.50;;
12469;SDS011;36499;46.484;13.832;2023-12-07T05:10:33;3.10;;;2.27;;
12469;SDS011;36499;46.484;13.832;2023-12-07T05:13:00;3.90;;;2.37;;
12469;SDS011;36499;46.484;13.832;2023-12-07T05:15:27;6.93;;;3.53;;
12469;SDS011;36499;46.484;13.832;2023-12-07T05:17:54;4.73;;;2.60;;
12469;SDS011;36499;46.484;13.832;2023-12-07T05:20:22;4.57;;;2.57;;
12469;SDS011;36499;46.484;13.832;2023-12-07T05:22:49;3.63;;;1.80;;
12469;SDS011;36499;46.484;13.832;2023-12-07T05:25:16;6.10;;;3.83;;
12469;SDS011;36499;46.484;13.832;2023-12-07T05:27:44;9.37;;;3.20;;
12469;SDS011;36499;46.484;13.832;2023-12-07T05:30:11;8.07;;;2.53;;
12469;SDS011;36499;46.484;13.832;2023-12-07T05:32:38;2.80;;;2.00;;
12469;SDS011;36499;46.484;13.832;2023-12-07T05:35:05;5.67;;;3.00;;
12469;SDS011;36499;46.484;13.832;2023-12-07T05:37:34;3.40;;;1.97;;
12469;SDS011;36499;46.484;13.832;2023-12-07T05:40:01;4.87;;;1.70;;
12469;SDS011;36499;46.484;13.832;2023-12-07T05:42:28;3.47;;;1.30;;
12469;SDS011;36499;46.484;13.832;2023-12-07T05:44:55;7.47;;;2.87;;
12469;SDS011;36499;46.484;13.832;2023-12-07T05:47:22;9.07;;;3.70;;
12469;SDS011;36499;46.484;13.832;2023-12-07T05:49:49;2.00;;;1.20;;
12469;SDS011;36499;46.484;13.832;2023-12-07T05:52:16;3.27;;;1.50;;
12469;SDS011;36499;46.484;13.832;2023-12-07T05:54:44;3.10;;;1.90;;
12469;SDS011;36499;46.484;13.832;2023-12-07T05:57:12;4.40;;;2.13;;
12469;SDS011;36499;46.484;13.832;2023-12-07T05:59:39;5.90;;;3.20;;
12469;SDS011;36499;46.484;13.832;2023-12-07T06:02:06;6.60;;;3.57;;
12469;SDS011;36499;46.484;13.832;2023-12-07T06:04:33;6.87;;;2.67;;
12469;SDS011;36499;46.484;13.832;2023-12-07T06:07:00;7.70;;;3.30;;
12469;SDS011;36499;46.484;13.832;2023-12-07T06:09:27;2.60;;;1.20;;
12469;SDS011;36499;46.484;13.832;2023-12-07T06:11:56;5.23;;;2.97;;
12469;SDS011;36499;46.484;13.832;2023-12-07T06:14:23;8.97;;;5.40;;
12469;SDS011;36499;46.484;13.832;2023-12-07T06:16:50;9.87;;;6.77;;
12469;SDS011;36499;46.484;13.832;2023-12-07T06:19:17;6.67;;;4.30;;
12469;SDS011;36499;46.484;13.832;2023-12-07T06:21:43;4.27;;;2.43;;
12469;SDS011;36499;46.484;13.832;2023-12-07T06:24:10;3.30;;;2.30;;
12469;SDS011;36499;46.484;13.832;2023-12-07T06:26:39;3.57;;;1.90;;
12469;SDS011;36499;46.484;13.832;2023-12-07T06:29:07;7.50;;;2.30;;
12469;SDS011;36499;46.484;13.832;2023-12-07T06:31:34;6.57;;;3.70;;
12469;SDS011;36499;46.484;13.832;2023-12-07T06:34:01;4.97;;;3.00;;
12469;SDS011;36499;46.484;13.832;2023-12-07T06:36:28;3.97;;;2.93;;
12469;SDS011;36499;46.484;13.832;2023-12-07T06:38:55;3.87;;;2.77;;
12469;SDS011;36499;46.484;13.832;2023-12-07T06:41:22;4.23;;;2.43;;
12469;SDS011;36499;46.484;13.832;2023-12-07T06:43:49;5.57;;;2.83;;
12469;SDS011;36499;46.484;13.832;2023-12-07T06:46:17;7.53;;;4.20;;
12469;SDS011;36499;46.484;13.832;2023-12-07T06:48:44;11.60;;;6.03;;
12469;SDS011;36499;46.484;13.832;2023-12-07T06:51:11;6.40;;;3.87;;
12469;SDS011;36499;46.484;13.832;2023-12-07T06:53:39;7.03;;;3.90;;
12469;SDS011;36499;46.484;13.832;2023-12-07T06:56:07;4.40;;;3.10;;
12469;SDS011;36499;46.484;13.832;2023-12-07T06:58:34;5.37;;;3.13;;
12469;SDS011;36499;46.484;13.832;2023-12-07T07:01:01;3.57;;;2.40;;
12469;SDS011;36499;46.484;13.832;2023-12-07T07:03:29;24.27;;;10.50;;
12469;SDS011;36499;46.484;13.832;2023-12-07T07:05:56;3.93;;;2.53;;
12469;SDS011;36499;46.484;13.832;2023-12-07T07:08:24;4.30;;;2.50;;
12469;SDS011;36499;46.484;13.832;2023-12-07T07:10:51;6.63;;;2.30;;
12469;SDS011;36499;46.484;13.832;2023-12-07T07:13:18;10.40;;;2.60;;
12469;SDS011;36499;46.484;13.832;2023-12-07T07:15:45;3.73;;;2.60;;
12469;SDS011;36499;46.484;13.832;2023-12-07T07:18:13;7.20;;;4.07;;
12469;SDS011;36499;46.484;13.832;2023-12-07T07:20:41;9.83;;;4.83;;
12469;SDS011;36499;46.484;13.832;2023-12-07T07:23:09;14.90;;;6.30;;
12469;SDS011;36499;46.484;13.832;2023-12-07T07:25:37;14.03;;;6.03;;
12469;SDS011;36499;46.484;13.832;2023-12-07T07:28:05;7.67;;;3.60;;
12469;SDS011;36499;46.484;13.832;2023-12-07T07:30:32;9.67;;;4.50;;
12469;SDS011;36499;46.484;13.832;2023-12-07T07:32:59;8.03;;;4.53;;
12469;SDS011;36499;46.484;13.832;2023-12-07T07:35:27;9.77;;;5.23;;
12469;SDS011;36499;46.484;13.832;2023-12-07T07:37:55;10.70;;;6.10;;
12469;SDS011;36499;46.484;13.832;2023-12-07T07:40:22;9.33;;;5.23;;
12469;SDS011;36499;46.484;13.832;2023-12-07T07:42:49;4.50;;;2.50;;
12469;SDS011;36499;46.484;13.832;2023-12-07T07:45:16;7.00;;;4.17;;
12469;SDS011;36499;46.484;13.832;2023-12-07T07:47:44;6.53;;;4.47;;
12469;SDS011;36499;46.484;13.832;2023-12-07T07:50:10;4.30;;;2.57;;
12469;SDS011;36499;46.484;13.832;2023-12-07T07:52:37;5.17;;;3.33;;
12469;SDS011;36499;46.484;13.832;2023-12-07T07:55:07;6.50;;;4.23;;
12469;SDS011;36499;46.484;13.832;2023-12-07T07:57:34;13.00;;;7.40;;
12469;SDS011;36499;46.484;13.832;2023-12-07T08:00:01;6.33;;;2.30;;
12469;SDS011;36499;46.484;13.832;2023-12-07T08:02:30;4.53;;;1.73;;
12469;SDS011;36499;46.484;13.832;2023-12-07T08:04:57;5.40;;;2.20;;
12469;SDS011;36499;46.484;13.832;2023-12-07T08:07:23;2.83;;;2.10;;
12469;SDS011;36499;46.484;13.832;2023-12-07T08:09:50;3.27;;;2.07;;
12469;SDS011;36499;46.484;13.832;2023-12-07T08:12:19;3.17;;;2.00;;
12469;SDS011;36499;46.484;13.832;2023-12-07T08:14:48;4.43;;;2.30;;
12469;SDS011;36499;46.484;13.832;2023-12-07T08:17:15;2.80;;;2.00;;
12469;SDS011;36499;46.484;13.832;2023-12-07T08:19:41;3.67;;;2.40;;
12469;SDS011;36499;46.484;13.832;2023-12-07T08:22:08;8.07;;;2.27;;
12469;SDS011;36499;46.484;13.832;2023-12-07T08:24:35;7.43;;;3.30;;
12469;SDS011;36499;46.484;13.832;2023-12-07T08:27:04;3.97;;;2.10;;
12469;SDS011;36499;46.484;13.832;2023-12-07T08:29:32;3.20;;;1.80;;
12469;SDS011;36499;46.484;13.832;2023-12-07T08:32:00;15.80;;;6.17;;
12469;SDS011;36499;46.484;13.832;2023-12-07T08:34:26;10.40;;;4.60;;
12469;SDS011;36499;46.484;13.832;2023-12-07T08:36:53;25.03;;;10.00;;
12469;SDS011;36499;46.484;13.832;2023-12-07T08:39:20;36.30;;;14.40;;
12469;SDS011;36499;46.484;13.832;2023-12-07T08:41:47;30.30;;;12.03;;
12469;SDS011;36499;46.484;13.832;2023-12-07T08:44:14;25.63;;;11.63;;
12469;SDS011;36499;46.484;13.832;2023-12-07T08:46:42;14.33;;;6.70;;
12469;SDS011;36499;46.484;13.832;2023-12-07T08:49:10;14.53;;;5.77;;
12469;SDS011;36499;46.484;13.832;2023-12-07T08:51:37;27.43;;;12.00;;
12469;SDS011;36499;46.484;13.832;2023-12-07T08:54:04;9.67;;;5.53;;
12469;SDS011;36499;46.484;13.832;2023-12-07T08:56:31;8.20;;;3.70;;
12469;SDS011;36499;46.484;13.832;2023-12-07T08:58:58;6.83;;;2.60;;
12469;SDS011;36499;46.484;13.832;2023-12-07T09:01:25;6.50;;;3.63;;
12469;SDS011;36499;46.484;13.832;2023-12-07T09:03:53;11.43;;;4.87;;
12469;SDS011;36499;46.484;13.832;2023-12-07T09:06:20;6.87;;;3.57;;
12469;SDS011;36499;46.484;13.832;2023-12-07T09:08:47;11.57;;;5.03;;
12469;SDS011;36499;46.484;13.832;2023-12-07T09:11:14;12.33;;;6.37;;
12469;SDS011;36499;46.484;13.832;2023-12-07T09:13:41;5.73;;;3.07;;
12469;SDS011;36499;46.484;13.832;2023-12-07T09:16:08;24.23;;;9.47;;
12469;SDS011;36499;46.484;13.832;2023-12-07T09:18:35;24.33;;;8.53;;
12469;SDS011;36499;46.484;13.832;2023-12-07T09:21:03;5.13;;;3.10;;
12469;SDS011;36499;46.484;13.832;2023-12-07T09:23:30;7.90;;;3.90;;
12469;SDS011;36499;46.484;13.832;2023-12-07T09:25:57;7.53;;;3.43;;
12469;SDS011;36499;46.484;13.832;2023-12-07T09:28:24;12.83;;;5.70;;
12469;SDS011;36499;46.484;13.832;2023-12-07T09:30:51;6.00;;;3.37;;
12469;SDS011;36499;46.484;13.832;2023-12-07T09:33:18;2.07;;;1.33;;
12469;SDS011;36499;46.484;13.832;2023-12-07T09:35:45;3.00;;;1.80;;
12469;SDS011;36499;46.484;13.832;2023-12-07T09:38:13;9.03;;;3.50;;
12469;SDS011;36499;46.484;13.832;2023-12-07T09:40:40;5.63;;;2.80;;
12469;SDS011;36499;46.484;13.832;2023-12-07T09:43:07;2.50;;;1.37;;
12469;SDS011;36499;46.484;13.832;2023-12-07T09:45:34;2.53;;;1.20;;
12469;SDS011;36499;46.484;13.832;2023-12-07T09:48:01;1.90;;;0.83;;
12469;SDS011;36499;46.484;13.832;2023-12-07T09:50:29;0.60;;;0.60;;
12469;SDS011;36499;46.484;13.832;2023-12-07T09:52:57;0.67;;;0.60;;
12469;SDS011;36499;46.484;13.832;2023-12-07T09:55:25;0.50;;;0.50;;
12469;SDS011;36499;46.484;13.832;2023-12-07T09:57:52;4.23;;;2.07;;
12469;SDS011;36499;46.484;13.832;2023-12-07T10:00:22;1.13;;;0.70;;
12469;SDS011;36499;46.484;13.832;2023-12-07T10:02:49;0.63;;;0.60;;
12469;SDS011;36499;46.484;13.832;2023-12-07T10:05:16;0.50;;;0.50;;
12469;SDS011;36499;46.484;13.832;2023-12-07T10:07:44;0.50;;;0.47;;
12469;SDS011;36499;46.484;13.832;2023-12-07T10:10:12;0.50;;;0.50;;
12469;SDS011;36499;46.484;13.832;2023-12-07T10:12:45;0.53;;;0.53;;
12469;SDS011;36499;46.484;13.832;2023-12-07T10:15:13;0.60;;;0.60;;
12469;SDS011;36499;46.484;13.832;2023-12-07T10:17:45;0.50;;;0.50;;
12469;SDS011;36499;46.484;13.832;2023-12-07T10:20:14;0.43;;;0.43;;
12469;SDS011;36499;46.484;13.832;2023-12-07T10:22:42;0.70;;;0.70;;
12469;SDS011;36499;46.484;13.832;2023-12-07T10:25:10;0.63;;;0.50;;
12469;SDS011;36499;46.484;13.832;2023-12-07T10:27:38;0.73;;;0.73;;
12469;SDS011;36499;46.484;13.832;2023-12-07T10:30:08;0.60;;;0.60;;
12469;SDS011;36499;46.484;13.832;2023-12-07T10:32:36;0.50;;;0.50;;
12469;SDS011;36499;46.484;13.832;2023-12-07T10:35:05;1.77;;;0.43;;
12469;SDS011;36499;46.484;13.832;2023-12-07T10:37:34;1.03;;;0.40;;
12469;SDS011;36499;46.484;13.832;2023-12-07T10:40:01;2.07;;;0.60;;
12469;SDS011;36499;46.484;13.832;2023-12-07T10:42:32;0.50;;;0.50;;
12469;SDS011;36499;46.484;13.832;2023-12-07T10:45:03;1.53;;;0.60;;
12469;SDS011;36499;46.484;13.832;2023-12-07T10:47:33;0.97;;;0.60;;
12469;SDS011;36499;46.484;13.832;2023-12-07T10:50:02;0.60;;;0.60;;
12469;SDS011;36499;46.484;13.832;2023-12-07T10:52:36;0.40;;;0.40;;
12469;SDS011;36499;46.484;13.832;2023-12-07T10:55:05;0.50;;;0.50;;
12469;SDS011;36499;46.484;13.832;2023-12-07T10:57:34;0.40;;;0.40;;
12469;SDS011;36499;46.484;13.832;2023-12-07T11:00:02;0.50;;;0.50;;
12469;SDS011;36499;46.484;13.832;2023-12-07T11:02:31;0.63;;;0.53;;
12469;SDS011;36499;46.484;13.832;2023-12-07T11:05:00;0.40;;;0.40;;
12469;SDS011;36499;46.484;13.832;2023-12-07T11:07:30;0.30;;;0.30;;
12469;SDS011;36499;46.484;13.832;2023-12-07T11:10:07;0.50;;;0.40;;
12469;SDS011;36499;46.484;13.832;2023-12-07T11:12:48;0.40;;;0.40;;
12469;SDS011;36499;46.484;13.832;2023-12-07T11:15:19;0.50;;;0.50;;
12469;SDS011;36499;46.484;13.832;2023-12-07T11:17:51;0.80;;;0.60;;
12469;SDS011;36499;46.484;13.832;2023-12-07T11:20:20;0.60;;;0.60;;
12469;SDS011;36499;46.484;13.832;2023-12-07T11:22:47;0.50;;;0.50;;
12469;SDS011;36499;46.484;13.832;2023-12-07T11:25:15;1.03;;;0.67;;
12469;SDS011;36499;46.484;13.832;2023-12-07T11:27:45;0.50;;;0.50;;
12469;SDS011;36499;46.484;13.832;2023-12-07T11:30:13;0.33;;;0.33;;
12469;SDS011;36499;46.484;13.832;2023-12-07T11:32:41;0.37;;;0.37;;
12469;SDS011;36499;46.484;13.832;2023-12-07T11:35:12;0.40;;;0.40;;
12469;SDS011;36499;46.484;13.832;2023-12-07T11:40:36;0.50;;;0.50;;
12469;SDS011;36499;46.484;13.832;2023-12-07T11:43:06;0.70;;;0.50;;
12469;SDS011;36499;46.484;13.832;2023-12-07T11:45:40;0.63;;;0.43;;
12469;SDS011;36499;46.484;13.832;2023-12-07T11:48:09;0.40;;;0.40;;
12469;SDS011;36499;46.484;13.832;2023-12-07T11:53:37;5.97;;;3.83;;
12469;SDS011;36499;46.484;13.832;2023-12-07T11:56:05;0.80;;;0.80;;
12469;SDS011;36499;46.484;13.832;2023-12-07T11:58:34;0.83;;;0.50;;
12469;SDS011;36499;46.484;13.832;2023-12-07T12:01:03;1.00;;;0.87;;
12469;SDS011;36499;46.484;13.832;2023-12-07T12:03:30;0.50;;;0.50;;
12469;SDS011;36499;46.484;13.832;2023-12-07T12:05:59;3.20;;;2.20;;
12469;SDS011;36499;46.484;13.832;2023-12-07T12:08:27;0.50;;;0.50;;
12469;SDS011;36499;46.484;13.832;2023-12-07T12:10:54;0.60;;;0.60;;
12469;SDS011;36499;46.484;13.832;2023-12-07T12:13:25;0.50;;;0.47;;
12469;SDS011;36499;46.484;13.832;2023-12-07T12:15:53;0.50;;;0.50;;
12469;SDS011;36499;46.484;13.832;2023-12-07T12:18:21;0.63;;;0.60;;
12469;SDS011;36499;46.484;13.832;2023-12-07T12:20:49;0.90;;;0.60;;
12469;SDS011;36499;46.484;13.832;2023-12-07T12:23:17;0.50;;;0.50;;
12469;SDS011;36499;46.484;13.832;2023-12-07T12:25:46;0.60;;;0.60;;
12469;SDS011;36499;46.484;13.832;2023-12-07T12:28:15;1.00;;;0.60;;
12469;SDS011;36499;46.484;13.832;2023-12-07T12:30:44;2.90;;;1.70;;
12469;SDS011;36499;46.484;13.832;2023-12-07T12:33:12;12.97;;;7.80;;
12469;SDS011;36499;46.484;13.832;2023-12-07T12:35:39;8.10;;;5.13;;
12469;SDS011;36499;46.484;13.832;2023-12-07T12:38:08;3.77;;;2.37;;
12469;SDS011;36499;46.484;13.832;2023-12-07T12:40:37;5.17;;;2.90;;
12469;SDS011;36499;46.484;13.832;2023-12-07T12:43:05;4.37;;;2.47;;
12469;SDS011;36499;46.484;13.832;2023-12-07T12:45:32;2.63;;;1.80;;
12469;SDS011;36499;46.484;13.832;2023-12-07T12:47:59;2.73;;;1.70;;
12469;SDS011;36499;46.484;13.832;2023-12-07T12:50:33;4.77;;;2.47;;
12469;SDS011;36499;46.484;13.832;2023-12-07T12:53:02;5.30;;;3.10;;
12469;SDS011;36499;46.484;13.832;2023-12-07T12:55:30;4.43;;;2.80;;
12469;SDS011;36499;46.484;13.832;2023-12-07T12:57:58;2.33;;;1.50;;
12469;SDS011;36499;46.484;13.832;2023-12-07T13:00:26;1.93;;;0.87;;
12469;SDS011;36499;46.484;13.832;2023-12-07T13:02:53;1.27;;;0.80;;
12469;SDS011;36499;46.484;13.832;2023-12-07T13:05:22;1.50;;;1.07;;
12469;SDS011;36499;46.484;13.832;2023-12-07T13:07:49;8.13;;;4.87;;
12469;SDS011;36499;46.484;13.832;2023-12-07T13:10:16;5.10;;;2.17;;
12469;SDS011;36499;46.484;13.832;2023-12-07T13:12:43;4.17;;;1.70;;
12469;SDS011;36499;46.484;13.832;2023-12-07T13:15:11;2.63;;;1.67;;
12469;SDS011;36499;46.484;13.832;2023-12-07T13:17:40;1.87;;;1.20;;
12469;SDS011;36499;46.484;13.832;2023-12-07T13:20:07;2.57;;;1.40;;
12469;SDS011;36499;46.484;13.832;2023-12-07T13:22:36;1.50;;;1.07;;
12469;SDS011;36499;46.484;13.832;2023-12-07T13:25:04;0.87;;;0.67;;
12469;SDS011;36499;46.484;13.832;2023-12-07T13:27:32;5.43;;;2.00;;
12469;SDS011;36499;46.484;13.832;2023-12-07T13:29:59;5.37;;;1.50;;
12469;SDS011;36499;46.484;13.832;2023-12-07T13:32:26;0.73;;;0.70;;
12469;SDS011;36499;46.484;13.832;2023-12-07T13:34:54;0.63;;;0.47;;
12469;SDS011;36499;46.484;13.832;2023-12-07T13:37:21;0.83;;;0.70;;
12469;SDS011;36499;46.484;13.832;2023-12-07T13:39:48;1.20;;;0.90;;
12469;SDS011;36499;46.484;13.832;2023-12-07T13:42:18;1.63;;;0.90;;
12469;SDS011;36499;46.484;13.832;2023-12-07T13:44:45;2.77;;;0.97;;
12469;SDS011;36499;46.484;13.832;2023-12-07T13:47:12;10.33;;;6.27;;
12469;SDS011;36499;46.484;13.832;2023-12-07T13:49:40;5.83;;;2.40;;
12469;SDS011;36499;46.484;13.832;2023-12-07T13:52:08;1.93;;;1.33;;
12469;SDS011;36499;46.484;13.832;2023-12-07T13:54:35;53.93;;;26.03;;
12469;SDS011;36499;46.484;13.832;2023-12-07T13:57:02;73.37;;;39.87;;
12469;SDS011;36499;46.484;13.832;2023-12-07T13:59:29;15.53;;;9.30;;
12469;SDS011;36499;46.484;13.832;2023-12-07T14:01:56;16.37;;;10.17;;
12469;SDS011;36499;46.484;13.832;2023-12-07T14:04:24;17.90;;;9.60;;
12469;SDS011;36499;46.484;13.832;2023-12-07T14:06:51;36.43;;;20.33;;
12469;SDS011;36499;46.484;13.832;2023-12-07T14:09:19;5.93;;;3.60;;
12469;SDS011;36499;46.484;13.832;2023-12-07T14:11:46;2.10;;;1.50;;
12469;SDS011;36499;46.484;13.832;2023-12-07T14:14:13;6.60;;;2.37;;
12469;SDS011;36499;46.484;13.832;2023-12-07T14:16:41;3.30;;;1.77;;
12469;SDS011;36499;46.484;13.832;2023-12-07T14:19:08;2.67;;;1.30;;
12469;SDS011;36499;46.484;13.832;2023-12-07T14:21:35;1.23;;;0.90;;
12469;SDS011;36499;46.484;13.832;2023-12-07T14:24:02;1.83;;;1.20;;
12469;SDS011;36499;46.484;13.832;2023-12-07T14:26:30;1.17;;;0.90;;
12469;SDS011;36499;46.484;13.832;2023-12-07T14:28:57;1.77;;;1.40;;
12469;SDS011;36499;46.484;13.832;2023-12-07T14:31:24;3.77;;;1.70;;
12469;SDS011;36499;46.484;13.832;2023-12-07T14:33:51;1.33;;;0.83;;
12469;SDS011;36499;46.484;13.832;2023-12-07T14:36:18;1.80;;;1.60;;
12469;SDS011;36499;46.484;13.832;2023-12-07T14:38:45;1.73;;;1.40;;
12469;SDS011;36499;46.484;13.832;2023-12-07T14:41:12;3.43;;;2.80;;